sensor_id;sensor_type;location;lat;lon;timestamp;pressure;altitude;pressure_sealevel;temperature;humidity
10587;BME280;5341;47.606;7.576;2023-01-19T00:01:59;97867.53;;;4.09;64.21
10587;BME280;5341;47.606;7.576;2023-01-19T00:04:35;97871.03;;;4.09;63.55
10587;BME280;5341;47.606;7.576;2023-01-19T00:07:02;97880.47;;;4.12;63.80
10587;BME280;5341;47.606;7.576;2023-01-19T00:09:30;97878.78;;;4.11;63.64
10587;BME280;5341;47.606;7.576;2023-01-19T00:12:01;97871.69;;;4.11;63.69
10587;BME280;5341;47.606;7.576;2023-01-19T00:14:36;97880.47;;;4.12;64.04
10587;BME280;5341;47.606;7.576;2023-01-19T00:17:04;97887.41;;;4.13;64.03
10587;BME280;5341;47.606;7.576;2023-01-19T00:19:32;97877.66;;;4.14;63.56
10587;BME280;5341;47.606;7.576;2023-01-19T00:21:59;97881.59;;;4.09;63.52
10587;BME280;5341;47.606;7.576;2023-01-19T00:24:28;97883.41;;;4.09;63.36
10587;BME280;5341;47.606;7.576;2023-01-19T00:27:06;97878.13;;;4.09;63.25
10587;BME280;5341;47.606;7.576;2023-01-19T00:29:37;97883.41;;;4.09;64.03
10587;BME280;5341;47.606;7.576;2023-01-19T00:32:06;97883.41;;;4.09;63.67
10587;BME280;5341;47.606;7.576;2023-01-19T00:34:34;97887.72;;;4.10;63.30
10587;BME280;5341;47.606;7.576;2023-01-19T00:37:05;97885.91;;;4.10;63.52
10587;BME280;5341;47.606;7.576;2023-01-19T00:39:38;97883.25;;;4.10;63.50
10587;BME280;5341;47.606;7.576;2023-01-19T00:53:01;97888.41;;;4.12;63.59
10587;BME280;5341;47.606;7.576;2023-01-19T00:55:31;97888.41;;;4.12;63.29
10587;BME280;5341;47.606;7.576;2023-01-19T01:00:56;97885.91;;;4.10;63.51
10587;BME280;5341;47.606;7.576;2023-01-19T01:03:34;97894.00;;;4.09;63.75
10587;BME280;5341;47.606;7.576;2023-01-19T01:06:02;97893.19;;;4.08;63.33
10587;BME280;5341;47.606;7.576;2023-01-19T01:08:46;97892.34;;;4.08;63.22
10587;BME280;5341;47.606;7.576;2023-01-19T01:11:26;97895.16;;;4.06;63.55
10587;BME280;5341;47.606;7.576;2023-01-19T01:13:56;97896.97;;;4.06;62.97
10587;BME280;5341;47.606;7.576;2023-01-19T01:16:25;97899.78;;;4.04;62.95
10587;BME280;5341;47.606;7.576;2023-01-19T01:19:02;97898.13;;;4.03;63.11
10587;BME280;5341;47.606;7.576;2023-01-19T01:21:56;97904.25;;;4.04;63.32
10587;BME280;5341;47.606;7.576;2023-01-19T01:27:06;97906.41;;;4.00;63.28
10587;BME280;5341;47.606;7.576;2023-01-19T01:29:48;97909.06;;;4.00;63.14
10587;BME280;5341;47.606;7.576;2023-01-19T01:32:22;97908.22;;;4.00;63.63
10587;BME280;5341;47.606;7.576;2023-01-19T01:37:32;97922.28;;;4.00;63.05
10587;BME280;5341;47.606;7.576;2023-01-19T01:48:26;97921.44;;;4.00;63.68
10587;BME280;5341;47.606;7.576;2023-01-19T01:51:00;97923.22;;;3.99;63.42
10587;BME280;5341;47.606;7.576;2023-01-19T02:04:33;97929.06;;;4.03;63.27
10587;BME280;5341;47.606;7.576;2023-01-19T02:09:48;97929.72;;;4.05;63.08
10587;BME280;5341;47.606;7.576;2023-01-19T02:12:38;97932.53;;;4.03;63.32
10587;BME280;5341;47.606;7.576;2023-01-19T02:15:59;97932.38;;;4.05;63.63
10587;BME280;5341;47.606;7.576;2023-01-19T02:18:30;97932.53;;;4.03;63.34
10587;BME280;5341;47.606;7.576;2023-01-19T02:21:47;97929.72;;;4.05;63.54
10587;BME280;5341;47.606;7.576;2023-01-19T02:24:20;97928.06;;;4.04;63.23
10587;BME280;5341;47.606;7.576;2023-01-19T02:26:51;97927.06;;;4.05;63.51
10587;BME280;5341;47.606;7.576;2023-01-19T02:29:20;97926.06;;;4.06;63.51
10587;BME280;5341;47.606;7.576;2023-01-19T02:31:49;97923.44;;;4.06;63.58
10587;BME280;5341;47.606;7.576;2023-01-19T02:34:20;97924.25;;;4.06;63.15
10587;BME280;5341;47.606;7.576;2023-01-19T02:36:49;97923.28;;;4.07;63.19
10587;BME280;5341;47.606;7.576;2023-01-19T02:42:35;97929.38;;;4.08;63.45
10587;BME280;5341;47.606;7.576;2023-01-19T02:45:07;97929.88;;;4.03;63.20
10587;BME280;5341;47.606;7.576;2023-01-19T02:47:38;97938.66;;;4.04;63.11
10587;BME280;5341;47.606;7.576;2023-01-19T02:50:35;97933.19;;;4.05;63.78
10587;BME280;5341;47.606;7.576;2023-01-19T02:53:23;97932.19;;;4.06;63.32
10587;BME280;5341;47.606;7.576;2023-01-19T02:56:02;97928.56;;;4.07;63.42
10587;BME280;5341;47.606;7.576;2023-01-19T02:58:38;97931.22;;;4.07;63.13
10587;BME280;5341;47.606;7.576;2023-01-19T03:01:12;97945.44;;;4.06;63.17
10587;BME280;5341;47.606;7.576;2023-01-19T03:03:51;97942.78;;;4.06;63.39
10587;BME280;5341;47.606;7.576;2023-01-19T03:06:30;97942.94;;;4.05;62.91
10587;BME280;5341;47.606;7.576;2023-01-19T03:09:01;97939.47;;;4.04;63.35
10587;BME280;5341;47.606;7.576;2023-01-19T03:11:38;97935.16;;;4.03;62.92
10587;BME280;5341;47.606;7.576;2023-01-19T03:14:11;97928.22;;;4.02;63.26
10587;BME280;5341;47.606;7.576;2023-01-19T03:16:47;97939.63;;;4.03;62.87
10587;BME280;5341;47.606;7.576;2023-01-19T03:19:22;97942.44;;;4.01;62.73
10587;BME280;5341;47.606;7.576;2023-01-19T03:21:57;97941.44;;;4.02;62.96
10587;BME280;5341;47.606;7.576;2023-01-19T03:24:29;97938.16;;;4.00;62.23
10587;BME280;5341;47.606;7.576;2023-01-19T03:27:00;97933.00;;;3.99;62.06
10587;BME280;5341;47.606;7.576;2023-01-19T03:29:36;97933.97;;;3.98;62.38
10587;BME280;5341;47.606;7.576;2023-01-19T03:32:10;97938.44;;;3.97;62.06
10587;BME280;5341;47.606;7.576;2023-01-19T03:34:39;97937.44;;;3.98;62.06
10587;BME280;5341;47.606;7.576;2023-01-19T03:37:13;97935.81;;;3.97;61.91
10587;BME280;5341;47.606;7.576;2023-01-19T03:39:42;97932.16;;;3.98;62.58
10587;BME280;5341;47.606;7.576;2023-01-19T03:42:13;97932.03;;;4.00;62.80
10587;BME280;5341;47.606;7.576;2023-01-19T03:44:43;97938.16;;;4.00;62.85
10587;BME280;5341;47.606;7.576;2023-01-19T03:47:22;97938.16;;;4.00;62.53
10587;BME280;5341;47.606;7.576;2023-01-19T03:50:03;97941.63;;;4.01;62.91
10587;BME280;5341;47.606;7.576;2023-01-19T03:52:45;97929.38;;;4.00;62.94
10587;BME280;5341;47.606;7.576;2023-01-19T03:58:08;97935.50;;;4.00;61.91
10587;BME280;5341;47.606;7.576;2023-01-19T04:00:48;97930.22;;;4.00;62.12
10587;BME280;5341;47.606;7.576;2023-01-19T04:03:17;97932.03;;;4.00;62.25
10587;BME280;5341;47.606;7.576;2023-01-19T04:05:45;97934.81;;;3.98;62.00
10587;BME280;5341;47.606;7.576;2023-01-19T04:08:13;97935.81;;;3.97;61.31
10587;BME280;5341;47.606;7.576;2023-01-19T04:10:40;97928.03;;;3.96;61.72
10587;BME280;5341;47.606;7.576;2023-01-19T04:13:11;97939.28;;;3.98;62.09
10587;BME280;5341;47.606;7.576;2023-01-19T04:15:39;97936.78;;;3.96;61.81
10587;BME280;5341;47.606;7.576;2023-01-19T04:18:07;97934.97;;;3.97;62.04
10587;BME280;5341;47.606;7.576;2023-01-19T04:20:35;97940.25;;;3.97;61.70
10587;BME280;5341;47.606;7.576;2023-01-19T04:23:04;97943.22;;;3.94;61.44
10587;BME280;5341;47.606;7.576;2023-01-19T04:25:35;97942.56;;;3.92;60.90
10587;BME280;5341;47.606;7.576;2023-01-19T04:28:04;97945.22;;;3.92;61.44
10587;BME280;5341;47.606;7.576;2023-01-19T04:30:34;97947.03;;;3.91;61.04
10587;BME280;5341;47.606;7.576;2023-01-19T04:33:04;97951.34;;;3.92;61.53
10587;BME280;5341;47.606;7.576;2023-01-19T04:35:32;97947.69;;;3.93;61.41
10587;BME280;5341;47.606;7.576;2023-01-19T04:38:00;97948.53;;;3.94;61.32
10587;BME280;5341;47.606;7.576;2023-01-19T04:40:28;97953.50;;;3.97;62.04
10587;BME280;5341;47.606;7.576;2023-01-19T04:43:01;97954.31;;;3.97;62.28
10587;BME280;5341;47.606;7.576;2023-01-19T04:45:29;97956.97;;;3.97;62.06
10587;BME280;5341;47.606;7.576;2023-01-19T04:48:01;97954.16;;;3.99;62.11
10587;BME280;5341;47.606;7.576;2023-01-19T04:50:34;97962.09;;;3.99;62.39
10587;BME280;5341;47.606;7.576;2023-01-19T04:53:03;97961.13;;;4.00;62.10
10587;BME280;5341;47.606;7.576;2023-01-19T04:55:37;97962.91;;;3.99;61.54
10587;BME280;5341;47.606;7.576;2023-01-19T04:58:07;97955.97;;;3.98;62.03
10587;BME280;5341;47.606;7.576;2023-01-19T05:00:34;97955.13;;;3.98;61.73
10587;BME280;5341;47.606;7.576;2023-01-19T05:03:03;97953.31;;;3.98;61.79
10587;BME280;5341;47.606;7.576;2023-01-19T05:05:32;97955.13;;;3.98;61.33
10587;BME280;5341;47.606;7.576;2023-01-19T05:08:00;97961.25;;;3.98;62.09
10587;BME280;5341;47.606;7.576;2023-01-19T05:10:27;97961.25;;;3.98;61.85
10587;BME280;5341;47.606;7.576;2023-01-19T05:12:55;97957.63;;;3.99;61.70
10587;BME280;5341;47.606;7.576;2023-01-19T05:15:23;97957.50;;;4.01;61.98
10587;BME280;5341;47.606;7.576;2023-01-19T05:17:50;97970.84;;;3.99;62.61
10587;BME280;5341;47.606;7.576;2023-01-19T05:20:20;97967.25;;;4.00;62.36
10587;BME280;5341;47.606;7.576;2023-01-19T05:22:50;97966.41;;;4.00;61.76
10587;BME280;5341;47.606;7.576;2023-01-19T05:25:18;97976.00;;;4.01;62.57
10587;BME280;5341;47.606;7.576;2023-01-19T05:27:47;97974.19;;;4.01;62.26
10587;BME280;5341;47.606;7.576;2023-01-19T05:33:03;97975.19;;;4.00;61.54
10587;BME280;5341;47.606;7.576;2023-01-19T05:35:40;97977.97;;;3.99;61.70
10587;BME280;5341;47.606;7.576;2023-01-19T05:38:10;97974.47;;;3.98;61.85
10587;BME280;5341;47.606;7.576;2023-01-19T05:40:40;97981.44;;;3.99;61.89
10587;BME280;5341;47.606;7.576;2023-01-19T05:43:07;97983.25;;;3.99;61.51
10587;BME280;5341;47.606;7.576;2023-01-19T05:45:48;97988.53;;;3.99;61.40
10587;BME280;5341;47.606;7.576;2023-01-19T05:49:05;97983.56;;;3.96;61.25
10587;BME280;5341;47.606;7.576;2023-01-19T05:51:45;97988.19;;;3.94;61.71
10587;BME280;5341;47.606;7.576;2023-01-19T05:54:15;97986.53;;;3.93;61.41
10587;BME280;5341;47.606;7.576;2023-01-19T05:56:43;97995.31;;;3.93;61.67
10587;BME280;5341;47.606;7.576;2023-01-19T05:59:26;97995.63;;;3.90;61.21
10587;BME280;5341;47.606;7.576;2023-01-19T06:02:06;98011.50;;;3.90;61.46
10587;BME280;5341;47.606;7.576;2023-01-19T06:04:47;98002.91;;;3.88;61.61
10587;BME280;5341;47.606;7.576;2023-01-19T06:07:19;98006.50;;;3.87;62.04
10587;BME280;5341;47.606;7.576;2023-01-19T06:09:58;98010.13;;;3.86;61.48
10587;BME280;5341;47.606;7.576;2023-01-19T06:12:38;98012.94;;;3.85;61.52
10587;BME280;5341;47.606;7.576;2023-01-19T06:15:18;98020.22;;;3.82;61.36
10587;BME280;5341;47.606;7.576;2023-01-19T06:18:33;98022.03;;;3.82;60.97
10587;BME280;5341;47.606;7.576;2023-01-19T06:21:08;98024.84;;;3.80;61.65
10587;BME280;5341;47.606;7.576;2023-01-19T06:23:59;98023.19;;;3.79;60.79
10587;BME280;5341;47.606;7.576;2023-01-19T06:26:31;98018.88;;;3.78;61.61
10587;BME280;5341;47.606;7.576;2023-01-19T06:29:00;98025.00;;;3.79;61.48
10587;BME280;5341;47.606;7.576;2023-01-19T06:31:39;98031.28;;;3.78;60.96
10587;BME280;5341;47.606;7.576;2023-01-19T06:34:18;98027.81;;;3.77;61.36
10587;BME280;5341;47.606;7.576;2023-01-19T06:36:48;98041.31;;;3.74;61.73
10587;BME280;5341;47.606;7.576;2023-01-19T06:39:28;98036.03;;;3.74;61.43
10587;BME280;5341;47.606;7.576;2023-01-19T06:42:06;98036.19;;;3.73;60.75
10587;BME280;5341;47.606;7.576;2023-01-19T06:44:57;98031.88;;;3.72;60.57
10587;BME280;5341;47.606;7.576;2023-01-19T06:47:33;98036.34;;;3.71;61.09
10587;BME280;5341;47.606;7.576;2023-01-19T06:50:06;98035.53;;;3.71;60.64
10587;BME280;5341;47.606;7.576;2023-01-19T06:52:36;98038.00;;;3.72;61.07
10587;BME280;5341;47.606;7.576;2023-01-19T06:55:14;98042.31;;;3.73;61.12
10587;BME280;5341;47.606;7.576;2023-01-19T06:57:42;98054.53;;;3.74;61.16
10587;BME280;5341;47.606;7.576;2023-01-19T07:00:11;98050.91;;;3.75;61.52
10587;BME280;5341;47.606;7.576;2023-01-19T07:02:40;98043.84;;;3.76;61.32
10587;BME280;5341;47.606;7.576;2023-01-19T07:05:09;98043.97;;;3.74;61.66
10587;BME280;5341;47.606;7.576;2023-01-19T07:07:36;98056.19;;;3.75;60.86
10587;BME280;5341;47.606;7.576;2023-01-19T07:10:07;98053.72;;;3.74;60.83
10587;BME280;5341;47.606;7.576;2023-01-19T07:12:38;98058.16;;;3.73;61.38
10587;BME280;5341;47.606;7.576;2023-01-19T07:15:08;98058.00;;;3.75;61.67
10587;BME280;5341;47.606;7.576;2023-01-19T07:17:36;98060.66;;;3.75;60.92
10587;BME280;5341;47.606;7.576;2023-01-19T07:20:05;98063.47;;;3.73;61.42
10587;BME280;5341;47.606;7.576;2023-01-19T07:22:33;98061.13;;;3.70;60.64
10587;BME280;5341;47.606;7.576;2023-01-19T07:25:04;98071.72;;;3.70;60.92
10587;BME280;5341;47.606;7.576;2023-01-19T07:27:32;98067.41;;;3.69;60.17
10587;BME280;5341;47.606;7.576;2023-01-19T07:30:02;98067.41;;;3.69;60.25
10587;BME280;5341;47.606;7.576;2023-01-19T07:32:29;98072.69;;;3.69;60.09
10587;BME280;5341;47.606;7.576;2023-01-19T07:34:57;98073.53;;;3.70;60.03
10587;BME280;5341;47.606;7.576;2023-01-19T07:37:25;98074.50;;;3.69;60.32
10587;BME280;5341;47.606;7.576;2023-01-19T07:39:52;98072.69;;;3.69;60.67
10587;BME280;5341;47.606;7.576;2023-01-19T07:42:20;98065.75;;;3.68;60.57
10587;BME280;5341;47.606;7.576;2023-01-19T07:44:47;98067.41;;;3.69;60.13
10587;BME280;5341;47.606;7.576;2023-01-19T07:47:16;98073.38;;;3.71;60.35
10587;BME280;5341;47.606;7.576;2023-01-19T07:49:44;98069.06;;;3.70;60.12
10587;BME280;5341;47.606;7.576;2023-01-19T07:52:11;98076.16;;;3.70;59.83
10587;BME280;5341;47.606;7.576;2023-01-19T07:54:39;98078.66;;;3.71;60.53
10587;BME280;5341;47.606;7.576;2023-01-19T07:57:09;98076.00;;;3.71;60.17
10587;BME280;5341;47.606;7.576;2023-01-19T07:59:36;98083.78;;;3.73;60.18
10587;BME280;5341;47.606;7.576;2023-01-19T08:02:04;98087.25;;;3.73;59.89
10587;BME280;5341;47.606;7.576;2023-01-19T08:04:36;98090.72;;;3.74;60.03
10587;BME280;5341;47.606;7.576;2023-01-19T08:07:10;98094.34;;;3.73;59.89
10587;BME280;5341;47.606;7.576;2023-01-19T08:09:40;98100.78;;;3.70;59.54
10587;BME280;5341;47.606;7.576;2023-01-19T08:12:33;98103.59;;;3.69;59.93
10587;BME280;5341;47.606;7.576;2023-01-19T08:15:15;98106.41;;;3.67;59.52
10587;BME280;5341;47.606;7.576;2023-01-19T08:18:19;98108.22;;;3.67;59.35
10587;BME280;5341;47.606;7.576;2023-01-19T08:23:31;98107.06;;;3.69;60.22
10587;BME280;5341;47.606;7.576;2023-01-19T08:29:25;98100.63;;;3.72;60.02
10587;BME280;5341;47.606;7.576;2023-01-19T08:31:54;98101.47;;;3.72;59.35
10587;BME280;5341;47.606;7.576;2023-01-19T08:34:25;98109.94;;;3.76;59.53
10587;BME280;5341;47.606;7.576;2023-01-19T08:36:56;98118.22;;;3.81;59.49
10587;BME280;5341;47.606;7.576;2023-01-19T08:39:26;98111.63;;;3.85;59.69
10587;BME280;5341;47.606;7.576;2023-01-19T08:42:22;98119.94;;;3.90;59.92
10587;BME280;5341;47.606;7.576;2023-01-19T08:44:57;98119.47;;;3.95;60.36
10587;BME280;5341;47.606;7.576;2023-01-19T08:47:26;98124.28;;;3.99;59.71
10587;BME280;5341;47.606;7.576;2023-01-19T08:49:56;98125.81;;;4.02;59.39
10587;BME280;5341;47.606;7.576;2023-01-19T08:53:03;98120.84;;;4.07;59.96
10587;BME280;5341;47.606;7.576;2023-01-19T09:03:34;98123.78;;;4.30;59.80
10587;BME280;5341;47.606;7.576;2023-01-19T09:06:04;98131.06;;;4.36;59.96
10587;BME280;5341;47.606;7.576;2023-01-19T09:08:34;98121.53;;;4.43;60.32
10587;BME280;5341;47.606;7.576;2023-01-19T09:11:09;98128.03;;;4.49;60.07
10587;BME280;5341;47.606;7.576;2023-01-19T09:13:39;98117.78;;;4.54;59.77
10587;BME280;5341;47.606;7.576;2023-01-19T09:19:52;98127.91;;;4.66;59.09
10587;BME280;5341;47.606;7.576;2023-01-19T09:22:48;98123.78;;;4.72;59.83
10587;BME280;5341;47.606;7.576;2023-01-19T09:25:17;98128.94;;;4.74;59.26
10587;BME280;5341;47.606;7.576;2023-01-19T09:31:11;98124.47;;;4.74;58.75
10587;BME280;5341;47.606;7.576;2023-01-19T09:38:58;98131.75;;;4.80;59.27
10587;BME280;5341;47.606;7.576;2023-01-19T09:41:28;98126.81;;;4.85;59.12
10587;BME280;5341;47.606;7.576;2023-01-19T09:47:57;98141.25;;;4.99;59.94
10587;BME280;5341;47.606;7.576;2023-01-19T09:59:39;98139.94;;;5.19;59.61
10587;BME280;5341;47.606;7.576;2023-01-19T10:04:55;98134.00;;;5.25;59.25
10587;BME280;5341;47.606;7.576;2023-01-19T10:08:17;98142.78;;;5.26;59.77
10587;BME280;5341;47.606;7.576;2023-01-19T10:10:55;98132.03;;;5.27;59.45
10587;BME280;5341;47.606;7.576;2023-01-19T10:13:38;98132.84;;;5.28;60.05
10587;BME280;5341;47.606;7.576;2023-01-19T10:16:24;98129.19;;;5.29;60.42
10587;BME280;5341;47.606;7.576;2023-01-19T10:19:00;98130.03;;;5.29;60.00
10587;BME280;5341;47.606;7.576;2023-01-19T10:21:32;98136.16;;;5.30;60.15
10587;BME280;5341;47.606;7.576;2023-01-19T10:24:05;98125.38;;;5.32;60.24
10587;BME280;5341;47.606;7.576;2023-01-19T10:26:38;98134.16;;;5.32;60.22
10587;BME280;5341;47.606;7.576;2023-01-19T10:29:20;98132.50;;;5.31;60.24
10587;BME280;5341;47.606;7.576;2023-01-19T10:32:02;98128.88;;;5.32;60.22
10587;BME280;5341;47.606;7.576;2023-01-19T10:34:37;98128.72;;;5.34;60.50
10587;BME280;5341;47.606;7.576;2023-01-19T10:37:16;98130.88;;;5.38;60.09
10587;BME280;5341;47.606;7.576;2023-01-19T10:39:53;98128.72;;;5.42;60.41
10587;BME280;5341;47.606;7.576;2023-01-19T10:42:22;98119.44;;;5.46;59.84
10587;BME280;5341;47.606;7.576;2023-01-19T10:44:54;98118.59;;;5.53;59.33
10587;BME280;5341;47.606;7.576;2023-01-19T10:47:29;98115.13;;;5.61;59.21
10587;BME280;5341;47.606;7.576;2023-01-19T10:49:58;98121.59;;;5.67;59.26
10587;BME280;5341;47.606;7.576;2023-01-19T10:52:48;98115.78;;;5.71;59.17
10587;BME280;5341;47.606;7.576;2023-01-19T10:55:27;98115.09;;;5.77;59.21
10587;BME280;5341;47.606;7.576;2023-01-19T10:57:59;98110.97;;;5.83;59.61
10587;BME280;5341;47.606;7.576;2023-01-19T11:00:33;98110.28;;;5.89;59.80
10587;BME280;5341;47.606;7.576;2023-01-19T11:03:22;98113.78;;;5.98;60.06
10587;BME280;5341;47.606;7.576;2023-01-19T11:05:53;98114.09;;;6.03;59.93
10587;BME280;5341;47.606;7.576;2023-01-19T11:08:29;98106.47;;;6.08;60.07
10587;BME280;5341;47.606;7.576;2023-01-19T11:11:02;98112.09;;;6.13;60.10
10587;BME280;5341;47.606;7.576;2023-01-19T11:13:34;98109.78;;;6.18;59.82
10587;BME280;5341;47.606;7.576;2023-01-19T11:16:05;98112.09;;;6.21;59.41
10587;BME280;5341;47.606;7.576;2023-01-19T11:18:38;98104.75;;;6.23;59.45
10587;BME280;5341;47.606;7.576;2023-01-19T11:21:10;98109.06;;;6.24;59.36
10587;BME280;5341;47.606;7.576;2023-01-19T11:23:40;98103.75;;;6.24;58.82
10587;BME280;5341;47.606;7.576;2023-01-19T11:26:24;98107.25;;;6.25;59.27
10587;BME280;5341;47.606;7.576;2023-01-19T11:28:58;98093.16;;;6.24;59.80
10587;BME280;5341;47.606;7.576;2023-01-19T11:31:43;98096.28;;;6.28;59.41
10587;BME280;5341;47.606;7.576;2023-01-19T11:34:26;98093.31;;;6.31;59.01
10587;BME280;5341;47.606;7.576;2023-01-19T11:37:15;98094.78;;;6.33;58.89
10587;BME280;5341;47.606;7.576;2023-01-19T11:39:56;98095.59;;;6.34;58.64
10587;BME280;5341;47.606;7.576;2023-01-19T11:42:25;98099.91;;;6.35;58.88
10587;BME280;5341;47.606;7.576;2023-01-19T11:44:58;98090.78;;;6.37;58.03
10587;BME280;5341;47.606;7.576;2023-01-19T11:47:47;98086.94;;;6.40;57.98
10587;BME280;5341;47.606;7.576;2023-01-19T11:50:23;98086.63;;;6.43;57.77
10587;BME280;5341;47.606;7.576;2023-01-19T11:52:56;98085.25;;;6.47;58.26
10587;BME280;5341;47.606;7.576;2023-01-19T11:55:32;98076.28;;;6.48;58.55
10587;BME280;5341;47.606;7.576;2023-01-19T11:58:05;98076.13;;;6.50;57.97
10587;BME280;5341;47.606;7.576;2023-01-19T12:00:41;98075.94;;;6.51;58.29
10587;BME280;5341;47.606;7.576;2023-01-19T12:03:26;98075.47;;;6.47;56.90
10587;BME280;5341;47.606;7.576;2023-01-19T12:06:08;98076.31;;;6.40;57.27
10587;BME280;5341;47.606;7.576;2023-01-19T12:08:46;98072.22;;;6.29;56.41
10587;BME280;5341;47.606;7.576;2023-01-19T12:11:26;98070.44;;;6.22;57.21
10587;BME280;5341;47.606;7.576;2023-01-19T12:14:16;98068.94;;;6.19;56.90
10587;BME280;5341;47.606;7.576;2023-01-19T12:16:48;98068.28;;;6.17;56.86
10587;BME280;5341;47.606;7.576;2023-01-19T12:19:19;98067.28;;;6.18;57.54
10587;BME280;5341;47.606;7.576;2023-01-19T12:21:51;98068.94;;;6.19;56.99
10587;BME280;5341;47.606;7.576;2023-01-19T12:24:25;98071.75;;;6.17;57.19
10587;BME280;5341;47.606;7.576;2023-01-19T12:27:10;98076.22;;;6.17;56.48
10587;BME280;5341;47.606;7.576;2023-01-19T12:29:45;98070.44;;;6.13;56.77
10587;BME280;5341;47.606;7.576;2023-01-19T12:32:31;98076.28;;;6.09;56.28
10587;BME280;5341;47.606;7.576;2023-01-19T12:34:59;98068.97;;;6.03;56.68
10587;BME280;5341;47.606;7.576;2023-01-19T12:37:35;98074.47;;;6.01;57.10
10587;BME280;5341;47.606;7.576;2023-01-19T12:40:20;98073.47;;;6.02;57.30
10587;BME280;5341;47.606;7.576;2023-01-19T12:42:58;98070.81;;;6.02;57.59
10587;BME280;5341;47.606;7.576;2023-01-19T12:45:40;98062.84;;;6.02;57.65
10587;BME280;5341;47.606;7.576;2023-01-19T12:48:23;98072.47;;;6.03;57.89
10587;BME280;5341;47.606;7.576;2023-01-19T12:50:54;98068.50;;;5.99;57.40
10587;BME280;5341;47.606;7.576;2023-01-19T12:53:24;98070.84;;;5.94;57.29
10587;BME280;5341;47.606;7.576;2023-01-19T12:55:59;98067.84;;;5.89;57.30
10587;BME280;5341;47.606;7.576;2023-01-19T12:58:31;98078.97;;;5.84;57.63
10587;BME280;5341;47.606;7.576;2023-01-19T13:01:13;98076.47;;;5.83;57.52
10587;BME280;5341;47.606;7.576;2023-01-19T13:04:02;98078.13;;;5.84;57.62
10587;BME280;5341;47.606;7.576;2023-01-19T13:07:05;98077.31;;;5.83;57.38
10587;BME280;5341;47.606;7.576;2023-01-19T13:09:38;98073.00;;;5.82;57.33
10587;BME280;5341;47.606;7.576;2023-01-19T13:12:24;98070.00;;;5.77;57.44
10587;BME280;5341;47.606;7.576;2023-01-19T13:18:15;98077.31;;;5.75;57.96
10587;BME280;5341;47.606;7.576;2023-01-19T13:20:45;98079.13;;;5.75;58.21
10587;BME280;5341;47.606;7.576;2023-01-19T13:23:21;98074.84;;;5.74;57.52
10587;BME280;5341;47.606;7.576;2023-01-19T13:26:11;98077.31;;;5.75;57.59
10587;BME280;5341;47.606;7.576;2023-01-19T13:28:42;98075.66;;;5.74;57.52
10587;BME280;5341;47.606;7.576;2023-01-19T13:31:12;98080.97;;;5.74;58.06
10587;BME280;5341;47.606;7.576;2023-01-19T13:33:48;98071.19;;;5.75;57.73
10587;BME280;5341;47.606;7.576;2023-01-19T13:36:21;98081.78;;;5.75;57.43
10587;BME280;5341;47.606;7.576;2023-01-19T13:38:52;98078.16;;;5.76;57.79
10587;BME280;5341;47.606;7.576;2023-01-19T13:41:24;98075.50;;;5.76;57.47
10587;BME280;5341;47.606;7.576;2023-01-19T13:44:03;98073.84;;;5.75;57.17
10587;BME280;5341;47.606;7.576;2023-01-19T13:46:36;98074.84;;;5.74;57.46
10587;BME280;5341;47.606;7.576;2023-01-19T13:49:13;98071.19;;;5.75;57.85
10587;BME280;5341;47.606;7.576;2023-01-19T13:51:42;98066.03;;;5.73;57.29
10587;BME280;5341;47.606;7.576;2023-01-19T13:54:14;98065.22;;;5.73;57.26
10587;BME280;5341;47.606;7.576;2023-01-19T13:56:48;98063.41;;;5.73;57.26
10587;BME280;5341;47.606;7.576;2023-01-19T13:59:16;98069.53;;;5.74;57.10
10587;BME280;5341;47.606;7.576;2023-01-19T14:01:45;98063.22;;;5.75;57.42
10587;BME280;5341;47.606;7.576;2023-01-19T14:04:33;98061.06;;;5.78;57.21
10587;BME280;5341;47.606;7.576;2023-01-19T14:07:05;98076.78;;;5.80;57.33
10587;BME280;5341;47.606;7.576;2023-01-19T14:09:38;98069.66;;;5.80;57.75
10587;BME280;5341;47.606;7.576;2023-01-19T14:12:16;98068.66;;;5.81;57.65
10587;BME280;5341;47.606;7.576;2023-01-19T14:14:48;98059.88;;;5.81;57.24
10587;BME280;5341;47.606;7.576;2023-01-19T14:17:22;98075.78;;;5.81;56.86
10587;BME280;5341;47.606;7.576;2023-01-19T14:19:52;98068.19;;;5.78;56.88
10587;BME280;5341;47.606;7.576;2023-01-19T14:22:40;98068.19;;;5.78;57.52
10587;BME280;5341;47.606;7.576;2023-01-19T14:25:36;98070.00;;;5.77;56.76
10587;BME280;5341;47.606;7.576;2023-01-19T14:28:40;98070.19;;;5.76;57.32
10587;BME280;5341;47.606;7.576;2023-01-19T14:31:20;98068.53;;;5.75;56.85
10587;BME280;5341;47.606;7.576;2023-01-19T14:34:01;98071.34;;;5.73;57.33
10587;BME280;5341;47.606;7.576;2023-01-19T14:36:36;98065.22;;;5.73;56.92
10587;BME280;5341;47.606;7.576;2023-01-19T14:39:05;98059.91;;;5.73;57.06
10587;BME280;5341;47.606;7.576;2023-01-19T14:42:18;98060.91;;;5.72;57.37
10587;BME280;5341;47.606;7.576;2023-01-19T14:47:35;98064.56;;;5.71;57.06
10587;BME280;5341;47.606;7.576;2023-01-19T14:50:17;98062.06;;;5.69;57.55
10587;BME280;5341;47.606;7.576;2023-01-19T14:53:15;98065.88;;;5.67;57.27
10587;BME280;5341;47.606;7.576;2023-01-19T14:55:46;98065.41;;;5.63;57.65
10587;BME280;5341;47.606;7.576;2023-01-19T14:58:17;98067.41;;;5.61;57.31
10587;BME280;5341;47.606;7.576;2023-01-19T15:00:49;98067.56;;;5.59;57.86
10587;BME280;5341;47.606;7.576;2023-01-19T15:03:33;98066.91;;;5.57;57.84
10587;BME280;5341;47.606;7.576;2023-01-19T15:06:09;98061.59;;;5.57;57.41
10587;BME280;5341;47.606;7.576;2023-01-19T15:08:39;98069.03;;;5.54;58.08
10587;BME280;5341;47.606;7.576;2023-01-19T15:11:21;98070.22;;;5.51;58.04
10587;BME280;5341;47.606;7.576;2023-01-19T15:16:25;98066.41;;;5.46;57.97
10587;BME280;5341;47.606;7.576;2023-01-19T15:18:55;98063.91;;;5.44;58.33
10587;BME280;5341;47.606;7.576;2023-01-19T15:21:29;98065.91;;;5.42;58.35
10587;BME280;5341;47.606;7.576;2023-01-19T15:23:57;98059.78;;;5.42;58.85
10587;BME280;5341;47.606;7.576;2023-01-19T16:49:55;98018.19;;;4.93;61.43
10587;BME280;5341;47.606;7.576;2023-01-19T16:53:01;98023.69;;;5.00;61.52
10587;BME280;5341;47.606;7.576;2023-01-19T16:55:30;98018.22;;;5.02;61.69
10587;BME280;5341;47.606;7.576;2023-01-19T16:57:58;98011.91;;;5.03;61.56
10587;BME280;5341;47.606;7.576;2023-01-19T17:00:25;98009.09;;;5.04;61.55
10587;BME280;5341;47.606;7.576;2023-01-19T17:02:54;98010.75;;;5.05;60.80
10587;BME280;5341;47.606;7.576;2023-01-19T17:06:21;98009.94;;;5.05;60.87
10587;BME280;5341;47.606;7.576;2023-01-19T17:09:12;98009.09;;;5.04;60.79
10587;BME280;5341;47.606;7.576;2023-01-19T17:11:39;98004.78;;;5.03;60.75